Terminal Aerodrome Forecast
Issued by NWS Memphis, TN

Home | Current Version | Previous Version | Text Only | Print | Product List | Glossary On
Versions: 1 2 3 4 5 6 7 8 9 10 11 12 13 14 15
667
FTUS44 KMEG 181725
TAFMKL
TAF
KMKL 181725Z 1818/1918 21022G30KT P6SM VCSH BKN025 OVC035
     FM182030 26030G40KT 2SM +TSRA SCT009 OVC015CB
     FM182200 30024G34KT P6SM VCSH BKN025 BKN150
     FM190200 33016G24KT P6SM FEW025 SCT150
     FM190500 33009KT P6SM SKC
     FM191500 32012G18KT P6SM SKC=

USA.gov is the U.S. government's official web portal to all federal, state and local government web resources and services.